createdAt,value
2017-09-19T00:01:12.939Z,84.70
2017-09-19T00:03:40.454Z,84.70
2017-09-19T00:06:07.951Z,84.30
2017-09-19T00:08:35.467Z,84.70
2017-09-19T00:11:02.970Z,84.70
2017-09-19T00:13:30.485Z,84.50
2017-09-19T00:15:57.978Z,85.00
2017-09-19T00:18:25.490Z,86.00
2017-09-19T00:20:53.006Z,84.70
2017-09-19T00:23:20.519Z,84.20
2017-09-19T00:25:48.010Z,84.90
2017-09-19T00:28:15.534Z,85.30
2017-09-19T00:30:43.026Z,85.00
2017-09-19T00:33:10.543Z,85.30
2017-09-19T00:35:38.038Z,85.30
2017-09-19T00:38:05.551Z,85.20
2017-09-19T00:40:33.046Z,85.40
2017-09-19T00:43:00.560Z,85.90
2017-09-19T00:45:28.054Z,85.70
2017-09-19T00:47:55.566Z,85.80
2017-09-19T00:50:23.827Z,86.30
2017-09-19T00:52:51.347Z,86.30
2017-09-19T00:55:18.843Z,86.70
2017-09-19T00:57:46.385Z,86.60
2017-09-19T01:00:13.878Z,86.40
2017-09-19T01:02:42.169Z,85.70
2017-09-19T01:05:09.674Z,85.70
2017-09-19T01:07:37.190Z,85.70
2017-09-19T01:10:04.686Z,85.70
2017-09-19T01:12:32.197Z,86.30
2017-09-19T01:15:00.458Z,86.60
2017-09-19T01:17:27.978Z,86.50
2017-09-19T01:19:55.475Z,86.30
2017-09-19T01:22:22.966Z,86.10
2017-09-19T01:24:50.491Z,86.30
2017-09-19T01:27:17.986Z,86.50
2017-09-19T01:29:45.514Z,86.60
2017-09-19T01:32:13.002Z,86.90
2017-09-19T01:34:40.519Z,85.90
2017-09-19T01:37:08.009Z,86.50
2017-09-19T01:39:42.386Z,86.30
2017-09-19T01:42:09.878Z,86.00
2017-09-19T01:44:38.149Z,85.60
2017-09-19T01:47:06.430Z,86.20
2017-09-19T01:49:33.946Z,86.00
2017-09-19T01:52:01.434Z,85.80
2017-09-19T01:54:29.710Z,84.20
2017-09-19T01:56:57.969Z,84.70
2017-09-19T01:59:25.481Z,84.90
2017-09-19T02:01:52.973Z,84.70
2017-09-19T02:04:20.487Z,85.00
2017-09-19T02:06:47.974Z,85.80
2017-09-19T02:09:15.483Z,85.60
2017-09-19T02:11:43.731Z,85.30
2017-09-19T02:14:11.238Z,85.10
2017-09-19T02:16:38.727Z,85.20
2017-09-19T02:19:06.237Z,85.40
2017-09-19T02:21:34.489Z,85.80
2017-09-19T02:24:02.769Z,85.80
2017-09-19T02:26:30.269Z,85.80
2017-09-19T02:28:57.778Z,85.80
2017-09-19T02:31:25.266Z,86.60
2017-09-19T02:33:52.781Z,86.10
2017-09-19T02:36:20.265Z,85.40
2017-09-19T02:38:48.539Z,85.70
2017-09-19T02:41:16.794Z,85.30
2017-09-19T02:43:44.307Z,85.30
2017-09-19T02:46:11.802Z,85.60
2017-09-19T02:48:39.318Z,85.30
2017-09-19T02:51:06.810Z,85.30
2017-09-19T02:53:34.314Z,85.60
2017-09-19T02:56:02.562Z,85.10
2017-09-19T02:58:30.071Z,85.00
2017-09-19T03:00:57.559Z,84.90
2017-09-19T03:03:25.090Z,84.20
2017-09-19T03:05:52.578Z,84.70
2017-09-19T03:08:20.113Z,84.70
2017-09-19T03:10:47.607Z,84.90
2017-09-19T03:13:15.117Z,84.80
2017-09-19T03:15:42.618Z,85.00
2017-09-19T03:18:10.134Z,85.10
2017-09-19T03:20:37.626Z,85.30
2017-09-19T03:23:05.134Z,85.80
2017-09-19T03:25:33.390Z,85.60
2017-09-19T03:28:00.902Z,85.60
2017-09-19T03:30:28.415Z,85.70
2017-09-19T03:32:56.690Z,86.30
2017-09-19T03:35:24.178Z,86.20
2017-09-19T03:37:51.690Z,85.20
2017-09-19T03:40:19.184Z,85.10
2017-09-19T03:42:46.694Z,85.80
2017-09-19T03:45:14.190Z,85.90
2017-09-19T03:47:42.474Z,85.10
2017-09-19T03:50:10.731Z,85.10
2017-09-19T03:52:38.242Z,85.00
2017-09-19T03:55:05.734Z,85.00
2017-09-19T03:57:34.011Z,85.30
2017-09-19T04:00:01.493Z,85.30
2017-09-19T04:02:29.764Z,85.30
2017-09-19T04:04:58.014Z,85.20
2017-09-19T04:07:25.522Z,85.00
2017-09-19T04:09:53.026Z,85.50
2017-09-19T04:12:20.542Z,86.00
2017-09-19T04:14:48.050Z,85.20
2017-09-19T04:17:15.566Z,84.70
2017-09-19T04:19:43.070Z,85.40
2017-09-19T04:22:10.581Z,85.10
2017-09-19T04:24:38.074Z,85.20
2017-09-19T04:27:05.586Z,85.00
2017-09-19T04:29:33.078Z,85.30
2017-09-19T04:32:00.590Z,85.80
2017-09-19T04:34:28.848Z,85.60
2017-09-19T04:36:56.362Z,85.40
2017-09-19T04:39:23.854Z,85.00
2017-09-19T04:41:51.370Z,85.30
2017-09-19T04:44:18.855Z,85.30
2017-09-19T04:46:46.370Z,85.30
2017-09-19T04:49:13.863Z,85.20
2017-09-19T04:51:41.375Z,85.50
2017-09-19T04:54:09.634Z,85.20
2017-09-19T04:56:37.914Z,84.80
2017-09-19T04:59:06.171Z,85.00
2017-09-19T05:01:33.685Z,84.90
2017-09-19T05:04:01.189Z,84.90
2017-09-19T05:06:28.714Z,85.00
2017-09-19T05:08:56.203Z,86.00
2017-09-19T05:11:23.715Z,85.30
2017-09-19T05:13:51.206Z,84.90
2017-09-19T05:16:18.722Z,85.00
2017-09-19T05:18:46.210Z,85.40
2017-09-19T05:21:13.721Z,85.90
2017-09-19T05:23:41.983Z,85.60
2017-09-19T05:26:09.499Z,85.40
2017-09-19T05:28:36.989Z,85.50
2017-09-19T05:31:05.270Z,85.20
2017-09-19T05:33:32.753Z,85.20
2017-09-19T05:36:00.257Z,85.10
2017-09-19T05:38:27.758Z,85.20
2017-09-19T05:40:56.029Z,85.40
2017-09-19T05:43:24.306Z,85.00
2017-09-19T05:45:51.814Z,85.20
2017-09-19T05:48:19.354Z,85.60
2017-09-19T05:50:46.854Z,85.40
2017-09-19T05:53:14.411Z,84.60
2017-09-19T05:55:41.902Z,84.60
2017-09-19T05:58:10.174Z,84.70
2017-09-19T06:00:38.437Z,84.50
2017-09-19T06:03:05.942Z,84.40
2017-09-19T06:05:33.433Z,84.70
2017-09-19T06:08:00.946Z,84.50
2017-09-19T06:10:28.435Z,84.10
2017-09-19T06:12:55.990Z,84.20
2017-09-19T06:15:23.478Z,84.00
2017-09-19T06:17:50.990Z,84.00
2017-09-19T06:20:18.483Z,84.30
2017-09-19T06:22:46.002Z,84.50
2017-09-19T06:25:13.499Z,84.90
2017-09-19T06:27:41.005Z,85.00
2017-09-19T06:30:09.262Z,84.00
2017-09-19T06:32:36.766Z,84.00
2017-09-19T06:35:04.259Z,83.80
2017-09-19T06:37:31.777Z,83.40
2017-09-19T06:39:59.270Z,84.00
2017-09-19T06:42:26.791Z,83.30
2017-09-19T06:44:54.285Z,83.70
2017-09-19T06:47:21.798Z,83.70
2017-09-19T06:49:49.289Z,84.10
2017-09-19T06:52:16.798Z,82.90
2017-09-19T06:54:45.066Z,83.30
2017-09-19T06:57:12.574Z,83.30
2017-09-19T06:59:40.102Z,83.20
2017-09-19T07:02:08.381Z,81.80
2017-09-19T07:04:36.642Z,81.40
2017-09-19T07:07:04.957Z,82.40
2017-09-19T07:09:32.455Z,82.30
2017-09-19T07:11:59.974Z,82.70
2017-09-19T07:14:27.491Z,83.00
2017-09-19T07:16:55.766Z,82.20
2017-09-19T07:19:23.253Z,82.10
2017-09-19T07:21:50.766Z,82.00
2017-09-19T07:24:18.259Z,81.20
2017-09-19T07:26:45.795Z,81.80
2017-09-19T07:29:13.286Z,82.00
2017-09-19T07:31:40.799Z,81.70
2017-09-19T07:34:08.294Z,81.30
2017-09-19T07:36:35.808Z,81.50
2017-09-19T07:39:03.307Z,80.90
2017-09-19T07:41:31.586Z,81.30
2017-09-19T07:43:59.842Z,80.00
2017-09-19T07:46:27.362Z,80.00
2017-09-19T07:48:54.866Z,80.60
2017-09-19T07:51:23.142Z,78.20
2017-09-19T07:53:50.638Z,78.20
2017-09-19T07:56:18.150Z,77.10
2017-09-19T07:58:45.643Z,76.60
2017-09-19T08:01:13.153Z,74.90
2017-09-19T08:03:40.642Z,74.40
2017-09-19T08:06:08.934Z,73.20
2017-09-19T08:08:36.427Z,73.10
2017-09-19T08:11:03.942Z,73.00
2017-09-19T08:13:31.450Z,73.20
2017-09-19T08:15:58.958Z,72.30
2017-09-19T08:18:26.441Z,71.40
2017-09-19T08:20:54.146Z,71.30
2017-09-19T08:23:21.637Z,72.60
2017-09-19T08:25:49.166Z,71.80
2017-09-19T08:28:16.656Z,70.20
2017-09-19T08:30:44.174Z,70.80
2017-09-19T08:33:11.672Z,70.20
2017-09-19T08:35:39.181Z,69.10
2017-09-19T08:38:06.672Z,67.40
2017-09-19T08:40:34.941Z,68.90
2017-09-19T08:43:03.198Z,68.70
2017-09-19T08:45:30.714Z,68.70
2017-09-19T08:47:58.201Z,67.10
2017-09-19T08:50:25.713Z,66.80
2017-09-19T08:52:53.207Z,66.60
2017-09-19T08:55:20.722Z,66.20
2017-09-19T08:57:48.982Z,67.40
2017-09-19T09:00:16.493Z,67.40
2017-09-19T09:02:43.989Z,66.10
2017-09-19T09:05:11.497Z,66.60
2017-09-19T09:07:38.987Z,66.50
2017-09-19T09:10:06.503Z,62.90
2017-09-19T09:12:33.988Z,63.90
2017-09-19T09:15:01.498Z,62.10
2017-09-19T09:17:29.754Z,61.90
2017-09-19T09:19:57.266Z,61.80
2017-09-19T09:22:24.753Z,62.20
2017-09-19T09:24:52.263Z,62.10
2017-09-19T09:27:19.750Z,63.90
2017-09-19T09:29:47.265Z,63.20
2017-09-19T09:32:15.522Z,63.90
2017-09-19T09:34:43.037Z,63.90
2017-09-19T09:37:10.534Z,63.70
2017-09-19T09:39:38.026Z,63.10
2017-09-19T09:42:06.306Z,64.70
2017-09-19T09:44:33.789Z,64.60
2017-09-19T09:47:01.298Z,66.30
2017-09-19T09:49:28.790Z,66.10
2017-09-19T09:51:56.306Z,63.10
2017-09-19T09:54:23.805Z,64.40
2017-09-19T09:56:51.309Z,63.50
2017-09-19T09:59:19.557Z,61.90
2017-09-19T10:01:47.069Z,61.90
2017-09-19T10:04:15.327Z,61.30
2017-09-19T10:06:42.838Z,61.20
2017-09-19T10:09:10.321Z,60.00
2017-09-19T10:11:37.825Z,57.10
2017-09-19T10:14:05.310Z,55.70
2017-09-19T10:16:32.822Z,55.40
2017-09-19T10:19:00.319Z,54.40
2017-09-19T10:21:27.829Z,50.80
2017-09-19T10:23:55.318Z,46.90
2017-09-19T10:26:23.593Z,37.60
2017-09-19T10:28:51.077Z,37.50
2017-09-19T10:31:18.597Z,35.30
2017-09-19T10:33:46.081Z,32.10
2017-09-19T10:36:13.591Z,30.50
2017-09-19T10:38:41.078Z,28.40
2017-09-19T10:41:09.350Z,25.50
2017-09-19T10:43:36.838Z,25.40
2017-09-19T10:46:04.347Z,24.70
2017-09-19T10:48:31.833Z,23.00
2017-09-19T10:50:59.341Z,21.90
2017-09-19T10:53:26.829Z,21.30
2017-09-19T10:55:54.334Z,22.40
2017-09-19T10:58:21.826Z,24.50
2017-09-19T11:00:49.334Z,26.40
2017-09-19T11:03:16.826Z,29.30
2017-09-19T11:05:44.338Z,31.20
2017-09-19T11:08:12.598Z,36.10
2017-09-19T11:10:40.101Z,36.00
2017-09-19T11:13:07.624Z,34.70
2017-09-19T11:15:35.126Z,32.50
2017-09-19T11:18:02.610Z,32.50
2017-09-19T11:20:30.122Z,32.30
2017-09-19T11:22:57.610Z,33.30
2017-09-19T11:25:25.122Z,34.20
2017-09-19T11:27:53.376Z,39.30
2017-09-19T11:30:20.888Z,39.30
2017-09-19T11:32:48.377Z,40.20
2017-09-19T11:35:15.890Z,40.70
2017-09-19T11:37:43.382Z,41.10
2017-09-19T11:40:11.669Z,43.30
2017-09-19T11:42:39.165Z,43.20
2017-09-19T11:45:07.472Z,44.60
2017-09-19T11:47:34.967Z,44.60
2017-09-19T11:50:02.474Z,44.10
2017-09-19T11:52:29.977Z,44.70
2017-09-19T11:54:57.550Z,46.60
2017-09-19T11:57:25.038Z,47.50
2017-09-19T11:59:53.313Z,46.50
2017-09-19T12:02:21.565Z,46.40
2017-09-19T12:04:49.074Z,46.40
2017-09-19T12:07:16.562Z,47.00
2017-09-19T12:09:44.074Z,47.60
2017-09-19T12:12:11.562Z,47.90
2017-09-19T12:14:39.074Z,49.30
2017-09-19T12:17:07.335Z,49.30
2017-09-19T12:19:34.845Z,49.20
2017-09-19T12:22:02.335Z,49.50
2017-09-19T12:24:29.856Z,49.50
2017-09-19T12:26:57.346Z,49.90
2017-09-19T12:29:24.858Z,50.00
2017-09-19T12:31:52.353Z,51.10
2017-09-19T12:34:19.861Z,50.90
2017-09-19T12:36:48.118Z,51.70
2017-09-19T12:39:15.625Z,51.70
2017-09-19T12:41:43.108Z,51.20
2017-09-19T12:44:10.614Z,50.90
2017-09-19T12:46:38.870Z,51.40
2017-09-19T12:49:06.373Z,52.00
2017-09-19T12:51:33.853Z,52.10
2017-09-19T12:54:01.363Z,51.80
2017-09-19T12:56:29.629Z,50.90
2017-09-19T12:58:57.922Z,51.60
2017-09-19T13:01:25.418Z,51.10
2017-09-19T13:03:52.922Z,50.90
2017-09-19T13:06:20.412Z,50.50
2017-09-19T13:08:47.902Z,49.40
2017-09-19T13:11:15.405Z,49.20
2017-09-19T13:13:43.654Z,48.90
2017-09-19T13:16:11.157Z,48.80
2017-09-19T13:18:38.646Z,48.50
2017-09-19T13:21:06.150Z,48.80
2017-09-19T13:23:33.634Z,48.90
2017-09-19T13:26:01.146Z,48.70
2017-09-19T13:28:28.633Z,49.70
2017-09-19T13:31:08.678Z,48.00
2017-09-19T13:33:48.800Z,48.60
2017-09-19T13:36:16.281Z,48.60
2017-09-19T13:38:43.769Z,49.60
2017-09-19T13:41:11.278Z,48.20
2017-09-19T13:43:38.802Z,48.10
2017-09-19T13:46:06.290Z,48.40
2017-09-19T13:48:33.782Z,48.30
2017-09-19T13:51:02.073Z,48.60
2017-09-19T13:53:29.562Z,48.50
2017-09-19T13:55:57.070Z,48.30
2017-09-19T13:58:25.326Z,48.20
2017-09-19T14:00:52.829Z,48.20
2017-09-19T14:03:20.326Z,48.80
2017-09-19T14:05:47.838Z,48.30
2017-09-19T14:08:15.318Z,47.90
2017-09-19T14:10:42.826Z,47.00
2017-09-19T14:13:11.166Z,46.90
2017-09-19T14:15:38.673Z,46.70
2017-09-19T14:18:06.930Z,45.50
2017-09-19T14:20:34.433Z,45.40
2017-09-19T14:23:01.926Z,45.20
2017-09-19T14:25:29.434Z,44.90
2017-09-19T14:27:57.691Z,45.60
2017-09-19T14:30:25.225Z,45.60
2017-09-19T14:32:52.713Z,46.30
2017-09-19T14:35:20.985Z,45.10
2017-09-19T14:37:48.473Z,45.10
2017-09-19T14:40:15.983Z,45.50
2017-09-19T14:42:43.478Z,45.90
2017-09-19T14:45:11.749Z,47.40
2017-09-19T14:47:40.011Z,47.70
2017-09-19T14:50:07.525Z,47.70
2017-09-19T14:52:35.005Z,48.00
2017-09-19T14:55:02.510Z,47.30
2017-09-19T14:57:30.005Z,47.30
2017-09-19T14:59:57.522Z,47.20
2017-09-19T15:02:25.775Z,46.90
2017-09-19T15:04:53.277Z,46.90
2017-09-19T15:07:20.768Z,46.40
2017-09-19T15:09:48.273Z,45.70
2017-09-19T15:12:16.526Z,45.40
2017-09-19T15:14:44.806Z,45.50
2017-09-19T15:17:13.062Z,45.60
2017-09-19T15:19:40.578Z,45.60
2017-09-19T15:22:08.070Z,45.40
2017-09-19T15:24:35.582Z,44.80
2017-09-19T15:27:03.070Z,44.80
2017-09-19T15:29:30.577Z,44.90
2017-09-19T15:31:58.830Z,43.30
2017-09-19T15:34:26.338Z,43.20
2017-09-19T15:36:53.848Z,43.00
2017-09-19T15:39:21.363Z,43.50
2017-09-19T15:41:48.853Z,44.20
2017-09-19T15:44:16.362Z,44.60
2017-09-19T15:46:43.849Z,45.00
2017-09-19T15:49:11.371Z,45.10
2017-09-19T15:51:39.622Z,45.80
2017-09-19T15:54:07.127Z,45.80
2017-09-19T15:56:34.618Z,45.90
2017-09-19T15:59:02.132Z,46.60
2017-09-19T16:01:29.612Z,47.70
2017-09-19T16:03:57.130Z,47.50
2017-09-19T16:06:25.682Z,47.60
2017-09-19T16:08:53.168Z,47.60
2017-09-19T16:11:21.446Z,47.80
2017-09-19T16:13:49.698Z,47.40
2017-09-19T16:16:17.185Z,47.30
2017-09-19T16:18:45.460Z,47.90
2017-09-19T16:21:13.714Z,48.40
2017-09-19T16:23:41.197Z,48.40
2017-09-19T16:26:09.478Z,49.00
2017-09-19T16:28:36.961Z,48.90
2017-09-19T16:31:04.472Z,49.70
2017-09-19T16:33:32.730Z,50.30
2017-09-19T16:36:00.209Z,50.20
2017-09-19T16:38:28.485Z,51.00
2017-09-19T16:40:56.741Z,51.10
2017-09-19T16:43:24.222Z,51.10
2017-09-19T16:45:52.636Z,51.40
2017-09-19T16:48:20.117Z,51.30
2017-09-19T16:50:47.607Z,51.60
2017-09-19T16:53:15.124Z,52.40
2017-09-19T16:55:42.621Z,52.40
2017-09-19T16:58:10.114Z,53.00
2017-09-19T17:00:37.651Z,52.70
2017-09-19T17:03:05.138Z,53.40
2017-09-19T17:05:32.626Z,54.30
2017-09-19T17:08:00.139Z,54.40
2017-09-19T17:10:27.625Z,54.20
2017-09-19T17:12:55.137Z,55.30
2017-09-19T17:15:22.654Z,55.10
2017-09-19T17:17:50.138Z,55.20
2017-09-19T17:20:17.634Z,55.90
2017-09-19T17:22:45.503Z,55.90
2017-09-19T17:25:12.982Z,55.80
2017-09-19T17:27:40.476Z,56.30
2017-09-19T17:30:07.991Z,56.80
2017-09-19T17:32:35.478Z,57.30
2017-09-19T17:35:02.975Z,57.10
2017-09-19T17:37:30.495Z,57.40
2017-09-19T17:39:57.984Z,57.80
2017-09-19T17:42:25.499Z,58.30
2017-09-19T17:44:52.994Z,58.30
2017-09-19T17:47:20.531Z,58.60
2017-09-19T17:49:48.046Z,58.90
2017-09-19T17:52:15.538Z,58.80
2017-09-19T17:54:43.814Z,59.70
2017-09-19T17:57:11.303Z,59.20
2017-09-19T17:59:38.818Z,59.30
2017-09-19T18:02:06.319Z,59.60
2017-09-19T18:04:33.835Z,59.70
2017-09-19T18:07:01.343Z,59.80
2017-09-19T18:09:28.855Z,59.90
2017-09-19T18:11:56.346Z,59.80
2017-09-19T18:14:23.870Z,60.10
2017-09-19T18:16:51.370Z,60.70
2017-09-19T18:19:18.882Z,61.30
2017-09-19T18:21:46.379Z,61.60
2017-09-19T18:24:13.902Z,61.80
2017-09-19T18:26:41.395Z,62.20
2017-09-19T18:29:08.922Z,62.40
2017-09-19T18:31:36.414Z,62.60
2017-09-19T18:34:03.923Z,62.80
2017-09-19T18:36:31.409Z,62.80
2017-09-19T18:38:58.903Z,63.00
2017-09-19T18:41:26.439Z,63.40
2017-09-19T18:43:53.926Z,63.60
2017-09-19T18:46:22.215Z,64.20
2017-09-19T18:48:49.706Z,64.20
2017-09-19T18:51:17.198Z,64.00
2017-09-19T18:53:44.706Z,64.20
2017-09-19T18:56:12.197Z,64.60
2017-09-19T18:58:39.706Z,64.30
2017-09-19T19:01:07.210Z,64.50
2017-09-19T19:03:34.717Z,64.80
2017-09-19T19:06:02.982Z,65.20
2017-09-19T19:08:31.258Z,65.30
2017-09-19T19:10:59.514Z,65.60
2017-09-19T19:13:27.029Z,65.60
2017-09-19T19:15:54.542Z,65.50
2017-09-19T19:18:22.050Z,66.10
2017-09-19T19:20:49.542Z,66.70
2017-09-19T19:23:17.051Z,67.00
2017-09-19T19:25:44.550Z,66.40
2017-09-19T19:28:12.064Z,66.90
2017-09-19T19:30:39.551Z,66.90
2017-09-19T19:33:07.071Z,66.60
2017-09-19T19:35:35.326Z,66.90
2017-09-19T19:38:03.622Z,66.30
2017-09-19T19:40:31.884Z,66.70
2017-09-19T19:43:00.174Z,66.70
2017-09-19T19:45:28.434Z,67.30
2017-09-19T19:47:55.956Z,66.40
2017-09-19T19:50:24.218Z,67.30
2017-09-19T19:52:51.711Z,67.30
2017-09-19T19:55:19.223Z,66.50
2017-09-19T19:57:46.719Z,66.50
2017-09-19T20:00:14.251Z,65.90
2017-09-19T20:02:41.750Z,65.60
2017-09-19T20:05:09.266Z,65.30
2017-09-19T20:07:36.762Z,65.40
2017-09-19T20:10:04.250Z,66.00
2017-09-19T20:12:31.761Z,66.20
2017-09-19T20:14:59.250Z,66.40
2017-09-19T20:17:27.515Z,67.10
2017-09-19T20:19:55.030Z,67.10
2017-09-19T20:22:22.523Z,67.10
2017-09-19T20:24:50.035Z,67.70
2017-09-19T20:27:17.530Z,67.80
2017-09-19T20:29:45.050Z,68.00
2017-09-19T20:32:12.539Z,68.20
2017-09-19T20:34:40.038Z,68.30
2017-09-19T20:37:07.574Z,68.50
2017-09-19T20:39:35.061Z,68.70
2017-09-19T20:42:02.571Z,69.00
2017-09-19T20:44:30.063Z,69.10
2017-09-19T20:46:57.577Z,69.10
2017-09-19T20:49:25.088Z,69.30
2017-09-19T20:51:52.658Z,69.00
2017-09-19T20:54:20.914Z,69.80
2017-09-19T20:56:48.425Z,69.80
2017-09-19T20:59:15.925Z,70.00
2017-09-19T21:01:43.442Z,70.00
2017-09-19T21:04:16.487Z,70.20
2017-09-19T21:06:50.414Z,71.50
2017-09-19T21:09:23.469Z,70.60
2017-09-19T21:11:56.624Z,70.80
2017-09-19T21:14:29.728Z,70.60
2017-09-19T21:17:02.875Z,70.90
2017-09-19T21:19:29.869Z,71.10
2017-09-19T21:21:57.387Z,71.20
2017-09-19T21:24:24.882Z,71.00
2017-09-19T21:26:52.399Z,70.70
2017-09-19T21:29:19.914Z,71.10
2017-09-19T21:31:47.430Z,71.30
2017-09-19T21:34:14.924Z,71.10
2017-09-19T21:36:42.434Z,71.10
2017-09-19T21:39:09.918Z,71.30
2017-09-19T21:41:37.429Z,71.80
2017-09-19T21:44:05.673Z,71.90
2017-09-19T21:46:33.191Z,71.80
2017-09-19T21:49:00.686Z,71.90
2017-09-19T21:51:28.197Z,71.70
2017-09-19T21:53:55.691Z,72.10
2017-09-19T21:56:23.203Z,72.30
2017-09-19T21:58:51.462Z,72.40
2017-09-19T22:01:18.975Z,72.40
2017-09-19T22:03:46.469Z,73.00
2017-09-19T22:06:13.982Z,72.70
2017-09-19T22:08:41.470Z,73.00
2017-09-19T22:11:08.977Z,72.90
2017-09-19T22:13:36.461Z,73.20
2017-09-19T22:16:03.970Z,73.40
2017-09-19T22:18:31.456Z,73.30
2017-09-19T22:20:58.973Z,73.20
2017-09-19T22:23:26.462Z,73.10
2017-09-19T22:25:54.742Z,73.20
2017-09-19T22:28:22.994Z,73.20
2017-09-19T22:30:51.286Z,73.10
2017-09-19T22:33:18.782Z,73.20
2017-09-19T22:35:46.290Z,73.40
2017-09-19T22:38:14.546Z,73.10
2017-09-19T22:40:42.054Z,73.70
2017-09-19T22:43:09.538Z,73.80
2017-09-19T22:45:37.045Z,74.50
2017-09-19T22:48:05.301Z,73.50
2017-09-19T22:50:33.410Z,73.60
2017-09-19T22:53:00.917Z,73.60
2017-09-19T22:55:28.405Z,73.60
2017-09-19T22:57:56.694Z,73.70
2017-09-19T23:00:24.950Z,73.80
2017-09-19T23:02:52.454Z,73.80
2017-09-19T23:05:19.942Z,73.90
2017-09-19T23:07:47.444Z,73.70
2017-09-19T23:10:15.718Z,73.30
2017-09-19T23:12:43.969Z,73.80
2017-09-19T23:15:11.452Z,73.70
2017-09-19T23:17:39.721Z,74.30
2017-09-19T23:20:07.973Z,75.00
2017-09-19T23:22:35.473Z,74.10
2017-09-19T23:25:02.962Z,74.30
2017-09-19T23:27:30.474Z,74.00
2017-09-19T23:29:58.730Z,75.20
2017-09-19T23:32:26.242Z,74.30
2017-09-19T23:34:53.725Z,74.70
2017-09-19T23:37:21.245Z,74.80
2017-09-19T23:39:48.731Z,74.60
2017-09-19T23:42:16.233Z,74.90
2017-09-19T23:44:43.717Z,74.90
2017-09-19T23:47:11.989Z,75.40
2017-09-19T23:49:39.469Z,75.40
2017-09-19T23:52:06.977Z,75.20
2017-09-19T23:54:34.466Z,75.00
2017-09-19T23:57:01.990Z,75.20
2017-09-19T23:59:29.473Z,75.30
